Time;durP1;ratioP1;P1;durP2;ratioP2;P2;SDS_P1;SDS_P2;PMS_P1;PMS_P2;Temp;Humidity;BMP_temperature;BMP_pressure;BME280_temperature;BME280_humidity;BME280_pressure;Samples;Min_cycle;Max_cycle;Signal;HPM_P1;HPM_P2
2023/07/04 00:00:58;;;;;;;;;;;;;;;22.21;44.66;100953.69;5052039;28;19973;-73
2023/07/04 00:03:23;;;;;;;;;;;;;;;22.20;44.58;100954.72;5051098;28;19989;-74
2023/07/04 00:05:48;;;;;;;;;;;;;;;22.19;44.45;100948.47;5061161;28;19917;-74
2023/07/04 00:08:14;;;;;;;;;;;;;;;22.19;44.36;100947.63;5051869;28;19913;-74
2023/07/04 00:10:39;;;;;;;;;;;;;;;22.19;44.34;100945.75;5062780;28;19913;-73
2023/07/04 00:13:04;;;;;;;;;;;;;;;22.18;44.65;100935.13;5060418;28;19913;-73
2023/07/04 00:15:29;;;;;;;;;;;;;;;22.17;44.46;100939.72;5067765;28;19944;-74
2023/07/04 00:17:54;;;;;;;;;;;;;;;22.17;44.30;100944.25;5067917;28;19968;-74
2023/07/04 00:20:20;;;;;;;;;;;;;;;22.16;44.53;100951.56;5053769;28;19917;-74
2023/07/04 00:22:45;;;;;;;;;;;;;;;22.16;44.54;100948.00;5071836;28;19917;-73
2023/07/04 00:25:10;;;;;;;;;;;;;;;22.15;44.51;100952.59;5059610;28;19919;-74
2023/07/04 00:27:35;;;;;;;;;;;;;;;22.15;44.37;100943.63;5064490;28;19948;-73
2023/07/04 00:30:04;;;;;;;;;;;;;;;22.15;44.27;100951.75;5067394;28;19913;-74
2023/07/04 00:32:29;;;;;;;;;;;;;;;22.14;44.71;100952.78;5058496;28;19944;-74
2023/07/04 00:34:54;;;;;;;;;;;;;;;22.14;44.45;100952.78;5067485;28;19920;-73
2023/07/04 00:37:21;;;;;;;;;;;;;;;22.13;44.44;100945.66;5062151;28;19984;-73
2023/07/04 00:39:46;;;;;;;;;;;;;;;22.13;44.34;100954.66;5063365;28;19921;-74
2023/07/04 00:42:12;;;;;;;;;;;;;;;22.12;44.26;100952.09;5062532;28;19921;-73
2023/07/04 00:44:44;;;;;;;;;;;;;;;22.12;44.26;100950.25;5052482;28;19912;-74
2023/07/04 00:47:11;;;;;;;;;;;;;;;22.11;44.54;100948.53;5063905;28;19913;-74
2023/07/04 00:49:43;;;;;;;;;;;;;;;22.10;44.47;100957.69;5053864;28;19912;-73
2023/07/04 00:52:10;;;;;;;;;;;;;;;22.09;44.52;100947.03;5060266;28;19971;-73
2023/07/04 00:54:37;;;;;;;;;;;;;;;22.10;44.45;100943.34;5042557;28;19977;-73
2023/07/04 00:57:02;;;;;;;;;;;;;;;22.09;44.38;100938.91;5067974;28;19916;-73
2023/07/04 00:59:29;;;;;;;;;;;;;;;22.08;44.34;100937.25;5057359;28;19916;-73
2023/07/04 01:01:56;;;;;;;;;;;;;;;22.07;44.52;100935.56;5064734;28;19985;-74
2023/07/04 01:04:23;;;;;;;;;;;;;;;22.07;44.44;100939.13;5057661;28;19913;-74
2023/07/04 01:06:49;;;;;;;;;;;;;;;22.06;44.43;100942.03;5048094;28;19924;-74
2023/07/04 01:09:17;;;;;;;;;;;;;;;22.07;44.53;100949.13;5048182;28;19931;-74
2023/07/04 01:11:45;;;;;;;;;;;;;;;22.06;44.42;100958.28;5049955;28;19935;-74
2023/07/04 01:14:26;;;;;;;;;;;;;;;22.05;44.29;100956.59;5038021;28;19955;-73
2023/07/04 01:16:52;;;;;;;;;;;;;;;22.05;44.52;100951.19;5066984;28;19932;-73
2023/07/04 01:19:20;;;;;;;;;;;;;;;21.68;44.49;100893.44;5060494;28;19920;-74
2023/07/04 01:21:45;;;;;;;;;;;;;;;22.04;44.48;100958.44;5065266;28;19912;-74
2023/07/04 01:24:12;;;;;;;;;;;;;;;22.03;44.55;100954.06;5042958;28;19917;-74
2023/07/04 01:26:38;;;;;;;;;;;;;;;22.03;44.59;100964.06;5053731;28;19940;-74
2023/07/04 01:29:04;;;;;;;;;;;;;;;22.02;44.39;100975.91;5057148;28;19917;-74
2023/07/04 01:31:32;;;;;;;;;;;;;;;22.02;44.32;100975.91;5065138;28;19963;-74
2023/07/04 01:34:02;;;;;;;;;;;;;;;22.02;44.30;100970.50;5051186;28;20023;-73
2023/07/04 01:36:28;;;;;;;;;;;;;;;22.00;44.51;100976.09;5052676;28;19920;-74
2023/07/04 01:38:54;;;;;;;;;;;;;;;22.00;44.32;100984.22;5052717;28;19932;-74
2023/07/04 01:41:19;;;;;;;;;;;;;;;22.00;44.31;100986.91;5059135;28;19913;-73
2023/07/04 01:43:46;;;;;;;;;;;;;;;22.00;44.28;100986.09;5068970;28;19968;-75
2023/07/04 01:46:12;;;;;;;;;;;;;;;21.99;44.48;100987.13;5046033;28;19980;-74
2023/07/04 01:48:37;;;;;;;;;;;;;;;21.98;44.51;100982.72;5056365;28;19923;-73
2023/07/04 01:51:02;;;;;;;;;;;;;;;21.96;44.53;100975.66;5073337;28;19953;-74
2023/07/04 01:53:27;;;;;;;;;;;;;;;21.96;44.41;100975.66;5059847;28;19921;-74
2023/07/04 01:55:53;;;;;;;;;;;;;;;21.95;44.34;100971.25;5068149;28;19940;-74
2023/07/04 01:58:18;;;;;;;;;;;;;;;21.95;44.53;100973.09;5066529;28;20745;-73
2023/07/04 02:00:43;;;;;;;;;;;;;;;21.95;44.36;100976.66;5063899;28;19975;-73
2023/07/04 02:03:08;;;;;;;;;;;;;;;21.95;44.55;100968.53;5067728;28;19916;-74
2023/07/04 02:05:33;;;;;;;;;;;;;;;21.94;44.54;100964.16;5067502;28;19923;-74
2023/07/04 02:07:59;;;;;;;;;;;;;;;21.94;44.47;100963.31;5063388;28;19916;-74
2023/07/04 02:10:24;;;;;;;;;;;;;;;21.93;44.50;100964.34;5067146;28;20390;-74
2023/07/04 02:12:49;;;;;;;;;;;;;;;21.93;44.71;100965.19;5071805;28;19924;-75
2023/07/04 02:15:15;;;;;;;;;;;;;;;21.92;44.47;100955.38;5055924;28;19964;-74
2023/07/04 02:17:40;;;;;;;;;;;;;;;21.92;44.43;100943.72;5075875;28;19920;-74
2023/07/04 02:20:05;;;;;;;;;;;;;;;21.92;44.57;100955.38;5063190;28;19917;-74
2023/07/04 02:22:31;;;;;;;;;;;;;;;21.91;44.45;100956.41;5053382;28;19912;-74
2023/07/04 02:24:56;;;;;;;;;;;;;;;21.90;44.36;100951.19;5070746;28;19944;-74
2023/07/04 02:27:21;;;;;;;;;;;;;;;21.91;44.24;100955.56;5061835;28;19917;-74
2023/07/04 02:29:47;;;;;;;;;;;;;;;21.90;44.69;100954.72;5069135;28;19913;-74
2023/07/04 02:32:12;;;;;;;;;;;;;;;21.89;44.32;100950.34;5064121;28;19913;-74
2023/07/04 02:34:37;;;;;;;;;;;;;;;21.88;44.57;100959.50;5065307;28;19935;-73
2023/07/04 02:37:03;;;;;;;;;;;;;;;21.89;44.52;100958.47;5063458;28;19921;-73
2023/07/04 02:39:29;;;;;;;;;;;;;;;21.89;44.66;100963.03;5070968;28;20476;-74
2023/07/04 02:41:54;;;;;;;;;;;;;;;21.88;44.44;100955.97;5059509;28;19917;-74
2023/07/04 02:44:20;;;;;;;;;;;;;;;21.87;44.57;100965.06;5054019;28;19986;-73
2023/07/04 02:46:45;;;;;;;;;;;;;;;21.87;44.29;100959.66;5066540;28;19913;-74
2023/07/04 02:49:10;;;;;;;;;;;;;;;21.86;44.70;100966.94;5057353;28;19913;-71
2023/07/04 02:51:35;;;;;;;;;;;;;;;21.86;44.42;100966.94;5074182;28;20257;-74
2023/07/04 02:54:00;;;;;;;;;;;;;;;21.86;44.58;100958.00;5062104;28;19917;-74
2023/07/04 02:56:26;;;;;;;;;;;;;;;21.85;44.33;100959.88;5066748;28;20365;-74
2023/07/04 02:58:51;;;;;;;;;;;;;;;21.85;44.33;100957.16;5037122;28;19925;-74
2023/07/04 03:01:16;;;;;;;;;;;;;;;21.84;44.26;100952.78;5066278;28;19916;-74
2023/07/04 03:03:41;;;;;;;;;;;;;;;21.84;44.47;100950.06;5061381;28;19948;-73
2023/07/04 03:06:07;;;;;;;;;;;;;;;21.84;44.48;100962.75;5068552;28;19913;-73
2023/07/04 03:08:32;;;;;;;;;;;;;;;21.82;44.40;100962.94;5062793;28;20408;-74
2023/07/04 03:10:57;;;;;;;;;;;;;;;21.81;44.37;100963.97;5063601;28;20282;-74
2023/07/04 03:13:22;;;;;;;;;;;;;;;21.81;44.30;100972.09;5070036;28;19918;-74
2023/07/04 03:15:47;;;;;;;;;;;;;;;21.81;44.48;100968.53;5036884;28;20325;-74
2023/07/04 03:18:13;;;;;;;;;;;;;;;21.80;44.45;100962.28;5073905;28;19934;-74
2023/07/04 03:20:38;;;;;;;;;;;;;;;21.80;44.43;100964.16;5043576;28;19963;-74
2023/07/04 03:23:03;;;;;;;;;;;;;;;21.80;44.49;100962.28;5062553;28;19913;-74
2023/07/04 03:25:29;;;;;;;;;;;;;;;21.80;44.25;100964.16;5069163;28;20034;-73
2023/07/04 03:27:54;;;;;;;;;;;;;;;21.79;44.30;100974.16;5063018;28;19913;-73
2023/07/04 03:30:19;;;;;;;;;;;;;;;21.80;44.25;100972.28;5060943;28;19916;-74
2023/07/04 03:32:45;;;;;;;;;;;;;;;21.78;44.37;100980.56;5064556;28;19913;-75
2023/07/04 03:35:10;;;;;;;;;;;;;;;21.78;44.55;100974.31;5063524;28;20069;-74
2023/07/04 03:37:36;;;;;;;;;;;;;;;21.77;44.38;100980.78;5042608;28;19923;-74
2023/07/04 03:40:06;;;;;;;;;;;;;;;21.77;44.40;100978.06;5072941;28;20255;-74
2023/07/04 03:42:31;;;;;;;;;;;;;;;21.76;44.66;100979.94;5063194;28;19920;-74
2023/07/04 03:44:56;;;;;;;;;;;;;;;21.75;44.31;100975.56;5068504;28;19968;-74
2023/07/04 03:47:21;;;;;;;;;;;;;;;21.75;44.63;100974.69;5065579;28;19914;-73
2023/07/04 03:49:47;;;;;;;;;;;;;;;21.74;44.46;100975.72;5059751;28;19954;-73
2023/07/04 03:52:12;;;;;;;;;;;;;;;21.75;44.23;100971.97;5069575;28;19919;-74
2023/07/04 03:54:38;;;;;;;;;;;;;;;21.73;44.23;100974.88;5059519;28;19963;-74
2023/07/04 03:57:03;;;;;;;;;;;;;;;21.74;44.26;100973.00;5061348;28;19924;-74
2023/07/04 03:59:28;;;;;;;;;;;;;;;21.73;44.61;100977.59;5064120;28;19931;-74
2023/07/04 04:01:53;;;;;;;;;;;;;;;21.73;44.34;100971.34;5067057;28;19913;-74
2023/07/04 04:04:20;;;;;;;;;;;;;;;21.73;44.27;100974.03;5056156;28;19916;-73
2023/07/04 04:06:48;;;;;;;;;;;;;;;21.72;44.31;100978.63;5069408;28;19923;-73
2023/07/04 04:09:14;;;;;;;;;;;;;;;21.72;44.27;100975.91;5059372;28;19917;-73
2023/07/04 04:11:39;;;;;;;;;;;;;;;21.71;44.25;100982.34;5060470;28;19917;-70
2023/07/04 04:14:04;;;;;;;;;;;;;;;21.70;44.29;100991.47;5068625;28;19942;-73
2023/07/04 04:16:29;;;;;;;;;;;;;;;21.70;44.41;100986.06;5055685;28;20464;-73
2023/07/04 04:18:54;;;;;;;;;;;;;;;21.70;44.66;100996.91;5071009;28;19976;-70
2023/07/04 04:21:20;;;;;;;;;;;;;;;21.70;44.63;100991.47;5056947;28;19924;-74
2023/07/04 04:23:45;;;;;;;;;;;;;;;21.70;44.40;101000.44;5061911;28;19974;-74
2023/07/04 04:26:12;;;;;;;;;;;;;;;21.69;44.73;100998.75;5064865;28;20331;-70
2023/07/04 04:28:37;;;;;;;;;;;;;;;21.70;44.81;101005.00;5060670;28;19946;-71
2023/07/04 04:31:03;;;;;;;;;;;;;;;21.70;44.42;101005.00;5061779;28;19920;-73
2023/07/04 04:33:28;;;;;;;;;;;;;;;21.69;44.69;101008.75;5065927;28;19924;-73
2023/07/04 04:35:53;;;;;;;;;;;;;;;21.68;44.54;101007.06;5061537;28;19941;-72
2023/07/04 04:38:18;;;;;;;;;;;;;;;21.69;44.73;101016.88;5056401;28;20070;-71
2023/07/04 04:40:43;;;;;;;;;;;;;;;21.68;44.83;101007.06;5069520;28;19916;-70
2023/07/04 04:43:09;;;;;;;;;;;;;;;21.69;45.18;101009.59;5056621;28;19917;-71
2023/07/04 04:45:34;;;;;;;;;;;;;;;21.68;45.04;101020.59;5061377;28;19916;-69
2023/07/04 04:48:01;;;;;;;;;;;;;;;21.70;45.37;101010.41;5047609;28;19975;-71
2023/07/04 04:50:30;;;;;;;;;;;;;;;21.70;45.44;101008.56;5056136;28;19916;-71
2023/07/04 04:52:56;;;;;;;;;;;;;;;21.70;45.34;101022.09;5067109;28;19924;-70
2023/07/04 04:55:21;;;;;;;;;;;;;;;21.71;45.18;101021.09;5057016;28;19913;-71
2023/07/04 04:57:46;;;;;;;;;;;;;;;21.71;45.52;101021.09;5058914;28;19917;-71
2023/07/04 05:00:12;;;;;;;;;;;;;;;21.72;45.31;101016.50;5059796;28;19984;-70
2023/07/04 05:02:37;;;;;;;;;;;;;;;21.73;45.75;101014.63;5064471;28;19956;-71
2023/07/04 05:05:03;;;;;;;;;;;;;;;21.73;45.35;101014.63;5054426;28;19921;-71
2023/07/04 05:07:28;;;;;;;;;;;;;;;21.73;45.41;101020.06;5064415;28;19923;-72
2023/07/04 05:09:54;;;;;;;;;;;;;;;21.39;45.71;100957.31;5062308;28;19955;-72
2023/07/04 05:12:19;;;;;;;;;;;;;;;21.74;45.43;101016.31;5063270;28;19921;-72
2023/07/04 05:14:44;;;;;;;;;;;;;;;21.75;45.76;101020.69;5045576;28;19914;-71
2023/07/04 05:17:09;;;;;;;;;;;;;;;21.74;45.54;101010.91;5061237;28;20466;-71
2023/07/04 05:19:35;;;;;;;;;;;;;;;21.75;45.55;101020.69;5062905;28;20378;-73
2023/07/04 05:22:00;;;;;;;;;;;;;;;21.74;45.64;101024.44;5060656;28;19917;-72
2023/07/04 05:24:25;;;;;;;;;;;;;;;21.74;45.91;101013.59;5061377;28;19924;-73
2023/07/04 05:26:51;;;;;;;;;;;;;;;21.75;45.82;101029.69;5061327;28;20321;-73
2023/07/04 05:29:16;;;;;;;;;;;;;;;21.76;46.07;101016.97;5067113;28;19917;-74
2023/07/04 05:31:41;;;;;;;;;;;;;;;21.76;45.72;101028.66;5056465;28;19971;-70
2023/07/04 05:34:07;;;;;;;;;;;;;;;21.76;45.98;101019.69;5066299;28;19960;-70
2023/07/04 05:36:33;;;;;;;;;;;;;;;21.77;45.78;101029.47;5062321;28;19952;-71
2023/07/04 05:39:02;;;;;;;;;;;;;;;21.76;45.88;101033.22;5043555;28;19916;-71
2023/07/04 05:41:28;;;;;;;;;;;;;;;21.76;45.88;101034.06;5067298;28;19917;-72
2023/07/04 05:43:54;;;;;;;;;;;;;;;21.76;45.88;101033.22;5054653;28;19932;-72
2023/07/04 05:46:19;;;;;;;;;;;;;;;21.76;45.88;101034.06;5062820;28;19974;-72
2023/07/04 05:48:44;;;;;;;;;;;;;;;21.76;45.65;101039.47;5049315;28;20593;-72
2023/07/04 05:51:11;;;;;;;;;;;;;;;21.75;45.51;101043.22;5063223;28;19912;-73
2023/07/04 05:53:37;;;;;;;;;;;;;;;21.74;45.65;101049.63;5062975;28;19954;-73
2023/07/04 05:56:06;;;;;;;;;;;;;;;21.75;45.75;101043.22;5063810;28;19936;-72
2023/07/04 05:58:31;;;;;;;;;;;;;;;21.75;45.65;101034.22;5055862;28;19925;-72
2023/07/04 06:00:59;;;;;;;;;;;;;;;21.73;45.65;101039.84;5049268;28;19912;-71
2023/07/04 06:03:24;;;;;;;;;;;;;;;21.72;45.63;101040.88;5063387;28;19931;-71
2023/07/04 06:05:49;;;;;;;;;;;;;;;21.72;45.72;101038.16;5034930;28;19952;-71
2023/07/04 06:08:14;;;;;;;;;;;;;;;21.74;45.71;101040.66;5059915;28;19912;-71
2023/07/04 06:10:40;;;;;;;;;;;;;;;21.74;45.92;101046.09;5061370;28;19921;-72
2023/07/04 06:13:05;;;;;;;;;;;;;;;21.74;45.74;101041.50;5068299;28;19923;-71
2023/07/04 06:15:30;;;;;;;;;;;;;;;21.75;46.10;101047.75;5067361;28;19916;-71
2023/07/04 06:17:55;;;;;;;;;;;;;;;21.74;46.20;101046.91;5062598;28;19925;-70
2023/07/04 06:20:21;;;;;;;;;;;;;;;21.74;46.18;101055.03;5047888;28;19952;-72
2023/07/04 06:22:46;;;;;;;;;;;;;;;21.75;45.84;101062.16;5066578;28;19920;-72
2023/07/04 06:25:11;;;;;;;;;;;;;;;21.76;45.92;101057.59;5063441;28;19921;-73
2023/07/04 06:27:36;;;;;;;;;;;;;;;21.75;46.11;101070.28;5058810;28;19923;-73
2023/07/04 06:30:02;;;;;;;;;;;;;;;21.75;46.27;101067.56;5071726;28;19912;-71
2023/07/04 06:32:27;;;;;;;;;;;;;;;21.75;46.00;101059.44;5056322;28;19917;-73
2023/07/04 06:34:52;;;;;;;;;;;;;;;21.75;46.28;101064.84;5067261;28;19924;-73
2023/07/04 06:37:17;;;;;;;;;;;;;;;21.76;45.98;101063.00;5067223;28;19917;-73
2023/07/04 06:39:43;;;;;;;;;;;;;;;21.75;45.86;101070.28;5055459;28;19917;-72
2023/07/04 06:42:08;;;;;;;;;;;;;;;21.75;45.82;101081.09;5035583;28;20070;-73
2023/07/04 06:44:33;;;;;;;;;;;;;;;21.77;46.06;101072.78;5060476;28;19916;-72
2023/07/04 06:46:58;;;;;;;;;;;;;;;21.77;46.07;101083.63;5064572;28;19939;-73
2023/07/04 06:49:23;;;;;;;;;;;;;;;21.77;46.01;101073.63;5063643;28;19928;-72
2023/07/04 06:51:49;;;;;;;;;;;;;;;21.76;45.92;101074.66;5068429;28;19917;-72
2023/07/04 06:54:14;;;;;;;;;;;;;;;21.78;45.80;101077.16;5061608;28;19913;-73
2023/07/04 06:56:39;;;;;;;;;;;;;;;21.77;45.71;101081.75;5046570;28;19921;-73
2023/07/04 06:59:04;;;;;;;;;;;;;;;21.77;45.51;101070.06;5060416;28;20003;-72
2023/07/04 07:01:32;;;;;;;;;;;;;;;21.77;45.68;101073.63;5068081;28;20014;-73
2023/07/04 07:03:57;;;;;;;;;;;;;;;21.78;45.59;101082.56;5062781;28;19916;-72
2023/07/04 07:06:22;;;;;;;;;;;;;;;21.77;45.75;101084.44;5055746;28;19920;-73
2023/07/04 07:08:47;;;;;;;;;;;;;;;21.77;45.64;101081.75;5075143;28;19923;-73
2023/07/04 07:11:13;;;;;;;;;;;;;;;21.78;45.52;101088.81;5057159;28;19920;-73
2023/07/04 07:13:39;;;;;;;;;;;;;;;21.80;45.51;101083.25;5065374;28;19967;-73
2023/07/04 07:16:14;;;;;;;;;;;;;;;21.79;45.74;101095.94;5066792;28;19924;-73
2023/07/04 07:18:40;;;;;;;;;;;;;;;21.79;45.55;101095.09;5047535;28;19932;-73
2023/07/04 07:21:06;;;;;;;;;;;;;;;21.79;45.44;101095.94;5062519;28;19913;-73
2023/07/04 07:23:31;;;;;;;;;;;;;;;21.78;45.44;101102.38;5053047;28;19923;-73
2023/07/04 07:25:57;;;;;;;;;;;;;;;21.78;45.67;101102.38;5060734;28;19936;-72
2023/07/04 07:28:23;;;;;;;;;;;;;;;21.80;45.61;101104.91;5062225;28;19919;-72
2023/07/04 07:30:48;;;;;;;;;;;;;;;21.79;45.46;101098.66;5051990;28;19912;-72
2023/07/04 07:33:13;;;;;;;;;;;;;;;21.80;45.52;101100.34;5054223;28;20006;-73
2023/07/04 07:35:38;;;;;;;;;;;;;;;21.80;45.26;101104.91;5071978;28;19917;-73
2023/07/04 07:38:04;;;;;;;;;;;;;;;21.81;45.47;101107.41;5061166;28;19913;-71
2023/07/04 07:40:29;;;;;;;;;;;;;;;21.81;45.50;101112.00;5043836;28;19943;-73
2023/07/04 07:42:54;;;;;;;;;;;;;;;21.81;45.54;101107.41;5069873;28;19939;-72
2023/07/04 07:45:19;;;;;;;;;;;;;;;21.81;45.47;101107.41;5064855;28;19935;-72
2023/07/04 07:47:44;;;;;;;;;;;;;;;21.82;45.35;101113.66;5062300;28;19920;-72
2023/07/04 07:50:10;;;;;;;;;;;;;;;21.82;45.45;101105.56;5051421;28;20463;-73
2023/07/04 07:52:35;;;;;;;;;;;;;;;21.82;45.38;101109.09;5065508;28;19935;-73
2023/07/04 07:55:00;;;;;;;;;;;;;;;21.83;45.15;101118.88;5040159;28;19913;-72
2023/07/04 07:57:25;;;;;;;;;;;;;;;21.81;45.22;101115.53;5072384;28;20004;-73
2023/07/04 07:59:51;;;;;;;;;;;;;;;21.81;45.18;101112.00;5057916;28;19920;-72
2023/07/04 08:02:16;;;;;;;;;;;;;;;21.82;45.58;101124.50;5065319;28;19912;-72
2023/07/04 08:04:41;;;;;;;;;;;;;;;21.82;45.25;101102.84;5064473;28;19923;-73
2023/07/04 08:07:07;;;;;;;;;;;;;;;21.81;45.13;101112.84;5061422;28;19917;-72
2023/07/04 08:09:32;;;;;;;;;;;;;;;21.81;45.51;101112.00;5068911;28;19922;-73
2023/07/04 08:12:00;;;;;;;;;;;;;;;21.81;45.26;101112.84;5060377;28;19928;-73
2023/07/04 08:14:26;;;;;;;;;;;;;;;21.82;45.12;101121.78;5062553;28;19917;-73
2023/07/04 08:16:52;;;;;;;;;;;;;;;21.81;45.29;101123.66;5062499;28;19917;-73
2023/07/04 08:19:18;;;;;;;;;;;;;;;21.81;45.39;101115.53;5066360;28;19924;-73
2023/07/04 08:21:43;;;;;;;;;;;;;;;21.81;45.12;101117.41;5056810;28;19916;-72
2023/07/04 08:24:12;;;;;;;;;;;;;;;21.81;45.39;101128.22;5067994;28;19928;-72
2023/07/04 08:26:44;;;;;;;;;;;;;;;21.81;45.08;101130.94;5047786;28;20000;-73
2023/07/04 08:29:09;;;;;;;;;;;;;;;21.80;45.14;101129.25;5070085;28;19916;-73
2023/07/04 08:31:34;;;;;;;;;;;;;;;21.80;45.32;101135.50;5067154;28;19913;-73
2023/07/04 08:34:00;;;;;;;;;;;;;;;21.80;45.13;101132.81;5041102;28;20324;-73
2023/07/04 08:36:25;;;;;;;;;;;;;;;21.81;45.26;101122.81;5038117;28;19924;-73
2023/07/04 08:38:50;;;;;;;;;;;;;;;21.80;45.14;101108.44;5058850;28;20371;-73
2023/07/04 08:41:23;;;;;;;;;;;;;;;21.80;45.33;101115.72;5049861;28;19917;-73
2023/07/04 08:43:54;;;;;;;;;;;;;;;21.80;45.15;101113.03;5063582;28;19917;-72
2023/07/04 08:46:19;;;;;;;;;;;;;;;21.81;45.24;101120.13;5046732;28;19940;-73
2023/07/04 08:48:45;;;;;;;;;;;;;;;21.80;45.36;101126.56;5054840;28;19917;-73
2023/07/04 08:51:11;;;;;;;;;;;;;;;21.81;45.26;101131.78;5070459;28;19912;-73
2023/07/04 08:53:36;;;;;;;;;;;;;;;21.81;45.10;101136.34;5060095;28;19912;-72
2023/07/04 08:56:01;;;;;;;;;;;;;;;21.81;45.03;101150.72;5060105;28;19924;-73
2023/07/04 08:58:27;;;;;;;;;;;;;;;21.82;44.98;101151.56;5069333;28;19922;-73
2023/07/04 09:00:53;;;;;;;;;;;;;;;21.83;45.08;101161.34;5030590;28;19987;-73
2023/07/04 09:03:27;;;;;;;;;;;;;;;21.84;45.11;101168.47;5045618;28;19917;-73
2023/07/04 09:05:52;;;;;;;;;;;;;;;21.84;45.24;101171.19;5045261;28;20008;-71
2023/07/04 09:08:27;;;;;;;;;;;;;;;21.84;45.08;101165.78;5060768;28;19917;-73
2023/07/04 09:10:53;;;;;;;;;;;;;;;21.86;45.21;101178.09;5067283;28;19916;-73
2023/07/04 09:13:29;;;;;;;;;;;;;;;21.86;45.21;101175.38;5067004;28;19924;-73
2023/07/04 09:15:55;;;;;;;;;;;;;;;21.86;45.22;101172.66;5039718;28;19970;-73
2023/07/04 09:18:22;;;;;;;;;;;;;;;21.88;45.13;101169.81;5038095;28;19921;-73
2023/07/04 09:21:08;;;;;;;;;;;;;;;21.88;44.90;101167.09;5043235;28;19916;-72
2023/07/04 09:23:33;;;;;;;;;;;;;;;21.88;44.88;101173.34;5053561;28;19951;-73
2023/07/04 09:25:59;;;;;;;;;;;;;;;21.89;45.15;101187.72;5067071;28;19932;-72
2023/07/04 09:28:24;;;;;;;;;;;;;;;21.89;44.97;101182.31;5055574;28;19913;-73
2023/07/04 09:30:52;;;;;;;;;;;;;;;21.88;45.09;101186.03;5071053;28;19912;-73
2023/07/04 09:33:17;;;;;;;;;;;;;;;21.88;44.90;101191.47;5042018;28;20379;-73
2023/07/04 09:35:43;;;;;;;;;;;;;;;21.88;44.97;101195.00;5043523;28;19952;-72
2023/07/04 09:38:08;;;;;;;;;;;;;;;21.88;45.15;101199.56;5066117;28;20286;-73
2023/07/04 09:40:38;;;;;;;;;;;;;;;21.88;45.19;101197.72;5051921;28;19924;-72
2023/07/04 09:43:03;;;;;;;;;;;;;;;21.87;44.98;101193.28;5064715;28;19966;-73
2023/07/04 09:45:28;;;;;;;;;;;;;;;21.87;44.97;101195.16;5052999;28;19920;-73
2023/07/04 09:47:54;;;;;;;;;;;;;;;21.87;45.02;101192.44;5065017;28;19920;-73
2023/07/04 09:50:26;;;;;;;;;;;;;;;21.87;45.31;101203.28;5050008;28;19921;-73
2023/07/04 09:53:01;;;;;;;;;;;;;;;21.87;44.96;101195.16;5068369;28;19954;-73
2023/07/04 09:55:27;;;;;;;;;;;;;;;21.87;45.40;101187.88;5056447;28;19913;-72
2023/07/04 09:57:52;;;;;;;;;;;;;;;21.86;45.38;101194.31;5076060;28;19952;-73
2023/07/04 10:00:21;;;;;;;;;;;;;;;21.87;45.04;101209.53;5064008;28;20397;-73
2023/07/04 10:02:48;;;;;;;;;;;;;;;21.87;45.21;101182.47;5050124;28;20001;-73
2023/07/04 10:05:21;;;;;;;;;;;;;;;21.86;45.38;101188.91;5050648;28;19912;-72
2023/07/04 10:07:58;;;;;;;;;;;;;;;21.86;45.36;101191.63;5046620;28;20027;-73
2023/07/04 10:10:23;;;;;;;;;;;;;;;21.86;45.26;101194.31;5050847;28;19919;-72
2023/07/04 10:12:48;;;;;;;;;;;;;;;21.85;45.54;101191.81;5051562;28;19918;-72
2023/07/04 10:15:26;;;;;;;;;;;;;;;21.86;45.04;101201.59;5063875;28;19966;-73
2023/07/04 10:17:52;;;;;;;;;;;;;;;21.85;45.40;101198.06;5048614;28;19955;-73
2023/07/04 10:20:17;;;;;;;;;;;;;;;21.85;45.14;101202.63;5069649;28;19917;-72
2023/07/04 10:22:52;;;;;;;;;;;;;;;21.85;45.20;101205.34;5054515;28;19913;-73
2023/07/04 10:25:21;;;;;;;;;;;;;;;21.84;45.33;101209.91;5075596;28;19913;-73
2023/07/04 10:27:48;;;;;;;;;;;;;;;21.84;45.44;101214.50;5060912;28;19917;-73
2023/07/04 10:30:17;;;;;;;;;;;;;;;21.83;45.28;101213.63;5048432;28;19912;-73
2023/07/04 10:32:43;;;;;;;;;;;;;;;21.83;45.56;101210.91;5067620;28;19964;-72
2023/07/04 10:35:09;;;;;;;;;;;;;;;21.83;45.56;101223.63;5063588;28;19913;-73
2023/07/04 10:37:36;;;;;;;;;;;;;;;21.83;45.29;101223.63;5047900;28;19925;-73
2023/07/04 10:40:03;;;;;;;;;;;;;;;21.83;45.35;101207.38;5050907;28;19934;-72
2023/07/04 10:42:34;;;;;;;;;;;;;;;21.82;45.24;101219.22;5047174;28;19924;-73
2023/07/04 10:44:59;;;;;;;;;;;;;;;21.82;45.24;101233.59;5046013;28;19920;-73
2023/07/04 10:47:29;;;;;;;;;;;;;;;21.82;45.41;101230.06;5070707;28;19920;-71
2023/07/04 10:50:14;;;;;;;;;;;;;;;21.81;45.50;101221.09;5039112;28;19912;-73
2023/07/04 10:52:43;;;;;;;;;;;;;;;21.81;45.26;101220.25;5071142;28;19980;-73
2023/07/04 10:55:08;;;;;;;;;;;;;;;21.80;45.57;101226.72;5059462;28;19913;-72
2023/07/04 10:57:37;;;;;;;;;;;;;;;21.80;45.36;101222.13;5047615;28;19970;-73
2023/07/04 11:00:06;;;;;;;;;;;;;;;21.80;45.39;101226.72;5064341;28;19919;-73
2023/07/04 11:02:33;;;;;;;;;;;;;;;21.80;45.62;101234.81;5051490;28;19916;-72
2023/07/04 11:05:09;;;;;;;;;;;;;;;21.80;45.29;101229.41;5044904;28;19919;-73
2023/07/04 11:07:35;;;;;;;;;;;;;;;21.80;45.58;101237.53;5065852;28;19947;-73
2023/07/04 11:10:04;;;;;;;;;;;;;;;21.81;45.32;101228.38;5060812;28;20334;-73
2023/07/04 11:12:29;;;;;;;;;;;;;;;21.80;45.68;101230.25;5065401;28;19917;-73
2023/07/04 11:14:58;;;;;;;;;;;;;;;21.81;45.27;101231.09;5069612;28;19919;-73
2023/07/04 11:17:23;;;;;;;;;;;;;;;21.81;45.54;101234.63;5038932;28;19921;-73
2023/07/04 11:20:11;;;;;;;;;;;;;;;21.82;45.69;101230.06;5073755;28;19978;-72
2023/07/04 11:22:51;;;;;;;;;;;;;;;21.82;45.41;101230.06;5059317;28;19936;-73
2023/07/04 11:25:27;;;;;;;;;;;;;;;21.83;45.31;101234.44;5053373;28;19914;-73
2023/07/04 11:28:11;;;;;;;;;;;;;;;21.83;45.35;101235.28;5064657;28;19988;-73
2023/07/04 11:30:36;;;;;;;;;;;;;;;21.83;45.23;101238.00;5063410;28;19917;-73
2023/07/04 11:33:01;;;;;;;;;;;;;;;21.83;45.49;101240.69;5049050;28;20000;-72
2023/07/04 11:35:26;;;;;;;;;;;;;;;21.82;45.31;101243.59;5047213;28;19917;-73
2023/07/04 11:38:02;;;;;;;;;;;;;;;21.82;45.24;101239.03;5060755;28;19916;-72
2023/07/04 11:40:28;;;;;;;;;;;;;;;21.82;45.55;101244.44;5053473;28;19916;-72
2023/07/04 11:42:55;;;;;;;;;;;;;;;21.82;45.53;101246.31;5065208;28;19916;-73
2023/07/04 11:45:23;;;;;;;;;;;;;;;21.82;45.41;101239.03;5059641;28;19920;-73
2023/07/04 11:47:55;;;;;;;;;;;;;;;21.84;45.29;101241.56;5053595;28;19917;-72
2023/07/04 11:50:27;;;;;;;;;;;;;;;21.84;45.45;101237.00;5034995;28;20457;-73
2023/07/04 11:52:53;;;;;;;;;;;;;;;21.85;45.20;101246.78;5051871;28;19935;-72
2023/07/04 11:55:22;;;;;;;;;;;;;;;21.86;45.44;101243.06;5062643;28;19917;-73
2023/07/04 11:57:56;;;;;;;;;;;;;;;21.89;45.38;101236.44;5041944;28;19921;-73
2023/07/04 12:00:43;;;;;;;;;;;;;;;21.90;45.38;101238.13;5065551;28;19914;-72
2023/07/04 12:03:14;;;;;;;;;;;;;;;21.90;45.27;101238.97;5053067;28;19924;-72
2023/07/04 12:05:40;;;;;;;;;;;;;;;21.92;45.35;101236.09;5060226;28;19916;-73
2023/07/04 12:08:06;;;;;;;;;;;;;;;21.93;45.24;101235.91;5051578;28;19955;-73
2023/07/04 12:10:31;;;;;;;;;;;;;;;21.95;45.22;101247.38;5061163;28;20350;-73
2023/07/04 12:13:00;;;;;;;;;;;;;;;21.98;45.19;101239.94;5042340;28;19923;-71
2023/07/04 12:15:26;;;;;;;;;;;;;;;21.99;45.19;101236.19;5066847;28;19928;-72
2023/07/04 12:17:54;;;;;;;;;;;;;;;22.00;45.15;101237.88;5052175;28;20019;-72
2023/07/04 12:20:20;;;;;;;;;;;;;;;22.00;45.14;101232.47;5055769;28;19983;-73
2023/07/04 12:22:52;;;;;;;;;;;;;;;22.00;45.20;101233.28;5058059;28;19932;-73
2023/07/04 12:25:22;;;;;;;;;;;;;;;22.02;45.31;101233.13;5061025;28;19924;-73
2023/07/04 12:27:47;;;;;;;;;;;;;;;22.02;45.42;101233.97;5066141;28;19917;-73
2023/07/04 12:30:13;;;;;;;;;;;;;;;22.02;45.17;101231.25;5063167;28;19923;-73
2023/07/04 12:32:38;;;;;;;;;;;;;;;22.04;45.18;101222.94;5042968;28;20024;-73